Unser Platzwetter:

(um das Bild zu aktualisieren oder bei unvollständig geladenem Bild den Reload-Button des Browsers drücken)

[Quelle: ADDS]
METAR
ETNN 040220Z 12011G21KT 9999 FEW020 SCT060 BKN130 03/01 Q0983 BLU =
ETNN 040225Z 0403/0412 13012G22KT 8000 NSW SCT020 BKN060 TEMPO 0403/0407 15015G25KT 5000 RA BKN018 BKN040 TEMPO 0407/0412 17015G28KT 4000 -SHRA BKN015 BKN035TCU BY ETGL
TAF
ETNN 040225Z 0403/0412 13012G22KT 8000 NSW SCT020 BKN060 TEMPO 0403/0407 15015G25KT 5000 RA BKN018 BKN040 TEMPO 0407/0412 17015G28KT 4000 -SHRA BKN015 BKN035TCU BY ETGL =
SR / SS: 07:18 / 15:30 UTC (Vettweiss-Soller 2020-12-04)

Aktuelle Windrichtung in Relation zu unserer Bahn:

 

Aktuelle Dichtehöhe bei uns am Platz: 249 ft.

PPR beachten

50 44 51 N / 06 34 01 E
525 ft
14/32 Gras 360 m
136.090 MHz
02424/901444

Kontakt:

LSG Gertrundenhof e.V.
c/o Rolf Viehs
Scheffensweg 33
52393 Hürtgenwald-Gey
02429/908222
0178/8845333

in Lokalzeit:
08:16
16:32